createdAt,value
2019-03-26T00:00:53.318Z,440.69
2019-03-26T00:01:53.380Z,439.51
2019-03-26T00:02:53.304Z,433.44
2019-03-26T00:04:05.207Z,439.43
2019-03-26T00:04:54.270Z,435.88
2019-03-26T00:05:53.268Z,430.57
2019-03-26T00:06:53.245Z,441.32
2019-03-26T00:07:53.269Z,433.50
2019-03-26T00:08:53.227Z,436.83
2019-03-26T00:09:53.231Z,429.91
2019-03-26T00:10:53.218Z,433.32
2019-03-26T00:11:53.197Z,434.88
2019-03-26T00:12:53.211Z,438.79
2019-03-26T00:13:53.185Z,430.42
2019-03-26T00:14:53.158Z,437.60
2019-03-26T00:15:53.156Z,437.26
2019-03-26T00:16:53.150Z,433.53
2019-03-26T00:17:53.167Z,441.04
2019-03-26T00:18:53.146Z,433.31
2019-03-26T00:19:53.112Z,430.53
2019-03-26T00:20:53.100Z,429.87
2019-03-26T00:21:53.106Z,433.70
2019-03-26T00:22:53.090Z,448.29
2019-03-26T00:23:53.072Z,430.12
2019-03-26T00:24:53.089Z,427.50
2019-03-26T00:25:53.042Z,440.57
2019-03-26T00:26:53.020Z,435.29
2019-03-26T00:27:53.018Z,441.00
2019-03-26T00:28:53.001Z,438.09
2019-03-26T00:29:53.006Z,434.81
2019-03-26T00:30:53.001Z,440.23
2019-03-26T00:31:52.988Z,432.68
2019-03-26T00:32:52.956Z,433.42
2019-03-26T00:33:52.960Z,433.36
2019-03-26T00:34:52.944Z,432.53
2019-03-26T00:35:52.956Z,432.98
2019-03-26T00:36:52.925Z,433.17
2019-03-26T00:37:52.900Z,433.65
2019-03-26T00:38:52.892Z,437.84
2019-03-26T00:39:52.899Z,431.88
2019-03-26T00:40:52.892Z,430.20
2019-03-26T00:41:52.903Z,432.92
2019-03-26T00:42:52.860Z,429.10
2019-03-26T00:43:52.867Z,433.83
2019-03-26T00:44:52.840Z,437.58
2019-03-26T00:45:52.829Z,429.13
2019-03-26T00:46:52.819Z,435.33
2019-03-26T00:47:52.829Z,439.56
2019-03-26T00:48:52.793Z,431.44
2019-03-26T00:49:52.779Z,431.33
2019-03-26T00:50:52.769Z,432.62
2019-03-26T00:51:52.760Z,431.48
2019-03-26T00:52:52.758Z,433.14
2019-03-26T00:53:52.743Z,436.82
2019-03-26T00:54:52.732Z,429.84
2019-03-26T00:55:52.736Z,444.92
2019-03-26T00:56:52.732Z,433.71
2019-03-26T00:57:52.687Z,430.57
2019-03-26T00:58:52.678Z,432.01
2019-03-26T00:59:52.667Z,439.10
2019-03-26T01:00:52.649Z,424.06
2019-03-26T01:01:52.678Z,428.63
2019-03-26T01:02:52.662Z,436.31
2019-03-26T01:03:54.964Z,432.08
2019-03-26T01:04:52.617Z,438.12
2019-03-26T01:05:52.619Z,428.17
2019-03-26T01:06:52.595Z,434.79
2019-03-26T01:07:52.585Z,427.52
2019-03-26T01:08:52.571Z,432.06
2019-03-26T01:09:52.564Z,426.83
2019-03-26T01:10:52.579Z,441.68
2019-03-26T01:11:52.532Z,433.20
2019-03-26T01:12:52.523Z,431.86
2019-03-26T01:13:52.535Z,433.37
2019-03-26T01:14:52.513Z,432.85
2019-03-26T01:15:52.531Z,436.74
2019-03-26T01:16:52.511Z,438.56
2019-03-26T01:17:52.464Z,429.80
2019-03-26T01:18:52.465Z,430.75
2019-03-26T01:19:52.465Z,435.07
2019-03-26T01:20:52.461Z,429.58
2019-03-26T01:21:52.456Z,429.48
2019-03-26T01:22:52.429Z,427.42
2019-03-26T01:23:52.422Z,433.29
2019-03-26T01:24:52.405Z,435.31
2019-03-26T01:25:52.392Z,434.24
2019-03-26T01:26:52.473Z,434.32
2019-03-26T01:27:52.381Z,430.98
2019-03-26T01:28:52.367Z,433.80
2019-03-26T01:29:52.361Z,433.52
2019-03-26T01:30:52.339Z,433.48
2019-03-26T01:31:52.329Z,428.50
2019-03-26T01:32:52.322Z,435.46
2019-03-26T01:33:52.308Z,430.55
2019-03-26T01:34:52.294Z,431.39
2019-03-26T01:35:52.279Z,431.34
2019-03-26T01:36:52.260Z,429.21
2019-03-26T01:37:52.295Z,434.59
2019-03-26T01:38:52.255Z,438.82
2019-03-26T01:39:52.241Z,425.99
2019-03-26T01:40:52.237Z,432.39
2019-03-26T01:41:52.213Z,429.77
2019-03-26T01:42:52.215Z,434.50
2019-03-26T01:43:52.219Z,433.61
2019-03-26T01:44:52.191Z,432.07
2019-03-26T01:45:52.179Z,431.24
2019-03-26T01:46:52.166Z,430.64
2019-03-26T01:47:52.220Z,425.40
2019-03-26T01:48:52.149Z,435.47
2019-03-26T01:49:52.131Z,432.31
2019-03-26T01:50:52.134Z,429.88
2019-03-26T01:51:52.119Z,433.19
2019-03-26T01:52:52.108Z,429.12
2019-03-26T01:53:52.081Z,429.32
2019-03-26T01:54:52.105Z,434.35
2019-03-26T01:55:52.059Z,437.20
2019-03-26T01:56:52.067Z,431.47
2019-03-26T01:57:52.042Z,428.48
2019-03-26T01:58:52.038Z,435.17
2019-03-26T01:59:52.044Z,428.32
2019-03-26T02:00:52.018Z,434.38
2019-03-26T02:01:52.018Z,432.72
2019-03-26T02:02:51.990Z,432.36
2019-03-26T02:03:51.981Z,425.95
2019-03-26T02:04:59.772Z,432.38
2019-03-26T02:05:52.967Z,435.46
2019-03-26T02:06:51.955Z,429.03
2019-03-26T02:07:51.945Z,435.33
2019-03-26T02:08:51.919Z,443.32
2019-03-26T02:09:51.921Z,433.34
2019-03-26T02:10:51.912Z,429.26
2019-03-26T02:11:51.895Z,430.99
2019-03-26T02:12:51.924Z,427.30
2019-03-26T02:13:51.898Z,438.87
2019-03-26T02:14:51.854Z,429.27
2019-03-26T02:15:51.853Z,426.98
2019-03-26T02:16:51.844Z,435.40
2019-03-26T02:17:51.847Z,430.98
2019-03-26T02:18:51.828Z,434.45
2019-03-26T02:19:51.876Z,438.75
2019-03-26T02:20:51.801Z,427.83
2019-03-26T02:21:51.780Z,427.84
2019-03-26T02:22:51.783Z,427.77
2019-03-26T02:23:51.790Z,432.47
2019-03-26T02:24:51.789Z,430.69
2019-03-26T02:25:51.746Z,425.44
2019-03-26T02:26:51.733Z,435.52
2019-03-26T02:27:51.715Z,423.79
2019-03-26T02:28:51.699Z,427.40
2019-03-26T02:29:51.703Z,431.98
2019-03-26T02:30:51.709Z,425.36
2019-03-26T02:31:51.701Z,426.89
2019-03-26T02:32:51.670Z,429.47
2019-03-26T02:33:51.674Z,425.49
2019-03-26T02:34:51.638Z,426.47
2019-03-26T02:35:51.625Z,435.20
2019-03-26T02:36:51.624Z,430.71
2019-03-26T02:37:51.639Z,427.35
2019-03-26T02:38:51.620Z,429.90
2019-03-26T02:39:51.593Z,422.04
2019-03-26T02:40:51.576Z,436.04
2019-03-26T02:41:51.575Z,427.80
2019-03-26T02:42:51.591Z,425.09
2019-03-26T02:43:51.557Z,426.60
2019-03-26T02:44:51.550Z,431.04
2019-03-26T02:45:51.521Z,426.34
2019-03-26T02:46:51.517Z,428.83
2019-03-26T02:47:51.520Z,426.17
2019-03-26T02:48:51.505Z,428.14
2019-03-26T02:49:51.497Z,432.21
2019-03-26T02:50:51.501Z,427.54
2019-03-26T02:51:51.463Z,426.63
2019-03-26T02:52:51.458Z,425.47
2019-03-26T02:53:51.437Z,422.23
2019-03-26T02:54:51.427Z,424.13
2019-03-26T02:55:51.447Z,420.93
2019-03-26T02:56:51.408Z,427.31
2019-03-26T02:57:51.397Z,427.51
2019-03-26T02:58:51.387Z,428.09
2019-03-26T02:59:51.395Z,423.62
2019-03-26T03:00:51.373Z,426.11
2019-03-26T03:01:51.366Z,431.15
2019-03-26T03:02:51.353Z,425.86
2019-03-26T03:03:51.356Z,422.64
2019-03-26T03:04:51.330Z,423.74
2019-03-26T03:05:51.342Z,424.67
2019-03-26T03:06:51.294Z,434.09
2019-03-26T03:07:51.283Z,429.77
2019-03-26T03:08:51.303Z,430.01
2019-03-26T03:09:51.282Z,423.70
2019-03-26T03:10:51.260Z,426.96
2019-03-26T03:11:51.288Z,424.59
2019-03-26T03:12:51.245Z,425.09
2019-03-26T03:13:51.228Z,428.83
2019-03-26T03:14:51.223Z,422.06
2019-03-26T03:15:51.230Z,424.23
2019-03-26T03:16:51.211Z,422.17
2019-03-26T03:17:51.168Z,429.06
2019-03-26T03:18:51.159Z,426.98
2019-03-26T03:19:51.162Z,427.32
2019-03-26T03:20:51.153Z,427.97
2019-03-26T03:21:51.158Z,434.38
2019-03-26T03:22:51.130Z,426.61
2019-03-26T03:23:51.125Z,427.16
2019-03-26T03:24:51.119Z,431.35
2019-03-26T03:25:51.101Z,424.13
2019-03-26T03:26:51.128Z,422.75
2019-03-26T03:27:51.074Z,426.69
2019-03-26T03:28:51.091Z,432.20
2019-03-26T03:29:51.052Z,425.74
2019-03-26T03:30:51.055Z,431.56
2019-03-26T03:31:51.060Z,428.50
2019-03-26T03:32:51.064Z,422.73
2019-03-26T03:33:51.061Z,428.12
2019-03-26T03:34:51.031Z,423.79
2019-03-26T03:35:52.935Z,424.77
2019-03-26T03:36:50.980Z,430.40
2019-03-26T03:37:50.960Z,429.46
2019-03-26T03:38:50.953Z,426.03
2019-03-26T03:39:50.963Z,423.89
2019-03-26T03:40:50.924Z,427.71
2019-03-26T03:41:50.948Z,430.35
2019-03-26T03:42:50.912Z,421.13
2019-03-26T03:43:50.902Z,427.47
2019-03-26T03:44:50.919Z,426.58
2019-03-26T03:45:50.890Z,424.88
2019-03-26T03:46:50.881Z,429.19
2019-03-26T03:47:50.886Z,439.74
2019-03-26T03:48:50.850Z,432.05
2019-03-26T03:49:50.857Z,428.74
2019-03-26T03:50:50.824Z,429.10
2019-03-26T03:51:50.826Z,428.37
2019-03-26T03:52:50.827Z,434.81
2019-03-26T03:53:50.815Z,428.87
2019-03-26T03:54:50.794Z,437.73
2019-03-26T03:55:50.801Z,427.41
2019-03-26T03:56:50.788Z,430.63
2019-03-26T03:57:52.811Z,435.66
2019-03-26T03:58:50.733Z,439.18
2019-03-26T03:59:50.744Z,440.48
2019-03-26T04:00:50.732Z,430.83
2019-03-26T04:01:50.704Z,426.36
2019-03-26T04:02:50.681Z,430.12
2019-03-26T04:03:50.700Z,433.76
2019-03-26T04:04:50.668Z,431.31
2019-03-26T04:06:07.824Z,432.27
2019-03-26T04:06:51.654Z,427.75
2019-03-26T04:07:50.685Z,422.23
2019-03-26T04:08:50.656Z,430.31
2019-03-26T04:09:50.613Z,432.63
2019-03-26T04:10:50.678Z,440.45
2019-03-26T04:11:50.600Z,428.42
2019-03-26T04:12:50.590Z,425.59
2019-03-26T04:13:50.584Z,434.02
2019-03-26T04:14:50.600Z,426.61
2019-03-26T04:15:50.549Z,426.54
2019-03-26T04:16:50.548Z,433.03
2019-03-26T04:17:50.541Z,428.57
2019-03-26T04:18:50.591Z,429.34
2019-03-26T04:19:50.517Z,429.04
2019-03-26T04:20:50.534Z,433.17
2019-03-26T04:21:50.522Z,428.24
2019-03-26T04:22:50.474Z,429.87
2019-03-26T04:23:50.468Z,434.60
2019-03-26T04:24:50.446Z,432.70
2019-03-26T04:25:50.470Z,432.83
2019-03-26T04:26:50.445Z,427.62
2019-03-26T04:27:50.472Z,435.57
2019-03-26T04:28:50.416Z,428.14
2019-03-26T04:29:50.392Z,433.52
2019-03-26T04:30:50.422Z,430.00
2019-03-26T04:31:50.400Z,432.50
2019-03-26T04:32:50.372Z,438.69
2019-03-26T04:33:50.364Z,438.12
2019-03-26T04:34:50.346Z,432.52
2019-03-26T04:35:50.346Z,434.75
2019-03-26T04:36:50.357Z,437.91
2019-03-26T04:37:50.330Z,436.91
2019-03-26T04:38:50.315Z,425.79
2019-03-26T04:39:50.300Z,434.20
2019-03-26T04:40:50.312Z,434.64
2019-03-26T04:41:50.295Z,429.83
2019-03-26T04:42:50.263Z,432.21
2019-03-26T04:43:50.253Z,434.80
2019-03-26T04:44:50.246Z,434.50
2019-03-26T04:45:50.242Z,430.94
2019-03-26T04:46:50.263Z,437.10
2019-03-26T04:47:50.203Z,438.14
2019-03-26T04:48:50.199Z,439.67
2019-03-26T04:49:50.245Z,434.82
2019-03-26T04:50:50.188Z,438.40
2019-03-26T04:51:50.174Z,434.93
2019-03-26T04:52:50.211Z,436.24
2019-03-26T04:53:50.142Z,434.02
2019-03-26T04:54:50.147Z,433.31
2019-03-26T04:55:50.122Z,440.63
2019-03-26T04:56:50.115Z,438.88
2019-03-26T04:57:50.148Z,429.95
2019-03-26T04:58:50.101Z,433.63
2019-03-26T04:59:50.091Z,431.03
2019-03-26T05:00:50.077Z,443.11
2019-03-26T05:01:50.059Z,436.85
2019-03-26T05:02:50.051Z,438.45
2019-03-26T05:03:50.073Z,434.89
2019-03-26T05:04:50.037Z,434.61
2019-03-26T05:05:50.012Z,434.88
2019-03-26T05:06:50.080Z,443.34
2019-03-26T05:07:49.991Z,435.34
2019-03-26T05:08:50.010Z,441.45
2019-03-26T05:09:49.980Z,431.01
2019-03-26T05:10:49.966Z,430.03
2019-03-26T05:11:49.948Z,433.25
2019-03-26T05:12:49.944Z,428.85
2019-03-26T05:13:49.937Z,448.39
2019-03-26T05:14:49.947Z,439.79
2019-03-26T05:15:49.909Z,440.87
2019-03-26T05:16:49.908Z,431.46
2019-03-26T05:17:49.899Z,438.24
2019-03-26T05:18:49.904Z,442.86
2019-03-26T05:19:49.930Z,444.38
2019-03-26T05:20:49.866Z,430.76
2019-03-26T05:21:49.839Z,436.43
2019-03-26T05:22:49.830Z,445.04
2019-03-26T05:23:51.918Z,437.08
2019-03-26T05:24:49.840Z,442.32
2019-03-26T05:25:49.815Z,434.82
2019-03-26T05:26:49.792Z,433.11
2019-03-26T05:27:49.785Z,444.12
2019-03-26T05:28:49.771Z,433.67
2019-03-26T05:29:49.754Z,435.25
2019-03-26T05:30:49.763Z,431.42
2019-03-26T05:31:49.726Z,437.11
2019-03-26T05:32:49.717Z,438.55
2019-03-26T05:33:49.720Z,432.22
2019-03-26T05:34:49.711Z,434.74
2019-03-26T05:35:51.647Z,437.73
2019-03-26T05:36:51.432Z,430.78
2019-03-26T05:37:49.676Z,446.71
2019-03-26T05:38:49.668Z,443.50
2019-03-26T05:39:49.657Z,431.37
2019-03-26T05:40:49.651Z,430.94
2019-03-26T05:41:49.630Z,433.71
2019-03-26T05:42:49.615Z,435.98
2019-03-26T05:43:49.603Z,440.25
2019-03-26T05:44:49.586Z,434.63
2019-03-26T05:45:49.619Z,437.73
2019-03-26T05:46:49.573Z,432.47
2019-03-26T05:47:49.576Z,444.34
2019-03-26T05:48:49.558Z,440.94
2019-03-26T05:49:49.531Z,432.40
2019-03-26T05:50:49.521Z,439.18
2019-03-26T05:51:49.550Z,435.55
2019-03-26T05:52:49.512Z,428.34
2019-03-26T05:53:49.495Z,432.88
2019-03-26T05:54:49.506Z,432.47
2019-03-26T05:55:49.473Z,427.51
2019-03-26T05:56:49.487Z,440.60
2019-03-26T05:57:49.459Z,431.83
2019-03-26T05:58:49.451Z,434.71
2019-03-26T05:59:49.435Z,433.64
2019-03-26T06:00:49.449Z,433.62
2019-03-26T06:01:49.448Z,440.68
2019-03-26T06:02:49.393Z,435.01
2019-03-26T06:03:49.385Z,448.33
2019-03-26T06:04:49.371Z,437.59
2019-03-26T06:05:49.382Z,431.05
2019-03-26T06:06:49.364Z,434.44
2019-03-26T06:07:49.361Z,429.86
2019-03-26T06:08:49.333Z,433.55
2019-03-26T06:09:49.326Z,436.55
2019-03-26T06:10:49.314Z,432.04
2019-03-26T06:11:49.318Z,437.08
2019-03-26T06:12:50.411Z,437.25
2019-03-26T06:13:49.269Z,442.86
2019-03-26T06:14:49.268Z,435.53
2019-03-26T06:15:49.255Z,441.99
2019-03-26T06:16:49.244Z,438.19
2019-03-26T06:17:49.240Z,439.69
2019-03-26T06:18:49.252Z,437.28
2019-03-26T06:19:49.226Z,433.03
2019-03-26T06:20:49.205Z,435.08
2019-03-26T06:21:49.193Z,441.69
2019-03-26T06:22:49.211Z,432.06
2019-03-26T06:23:49.178Z,437.04
2019-03-26T06:24:49.163Z,440.51
2019-03-26T06:25:49.140Z,438.68
2019-03-26T06:26:49.128Z,437.59
2019-03-26T06:27:49.123Z,435.42
2019-03-26T06:28:49.126Z,435.21
2019-03-26T06:29:49.111Z,437.00
2019-03-26T06:30:49.097Z,433.41
2019-03-26T06:31:49.086Z,445.63
2019-03-26T06:32:49.075Z,442.69
2019-03-26T06:33:49.086Z,441.89
2019-03-26T06:34:49.049Z,445.96
2019-03-26T06:35:49.030Z,439.54
2019-03-26T06:36:49.024Z,447.31
2019-03-26T06:37:49.022Z,435.10
2019-03-26T06:38:49.032Z,444.42
2019-03-26T06:39:49.014Z,435.11
2019-03-26T06:40:48.978Z,440.82
2019-03-26T06:41:48.995Z,441.00
2019-03-26T06:42:48.981Z,435.37
2019-03-26T06:43:48.954Z,440.96
2019-03-26T06:44:48.971Z,443.31
2019-03-26T06:45:48.923Z,445.85
2019-03-26T06:46:48.908Z,437.80
2019-03-26T06:47:48.901Z,436.48
2019-03-26T06:48:48.895Z,440.20
2019-03-26T06:49:48.885Z,437.06
2019-03-26T06:50:48.892Z,447.61
2019-03-26T06:51:48.870Z,438.02
2019-03-26T06:52:48.858Z,442.51
2019-03-26T06:53:48.834Z,438.19
2019-03-26T06:54:51.514Z,445.04
2019-03-26T06:55:48.844Z,439.77
2019-03-26T06:56:48.805Z,439.34
2019-03-26T06:57:48.784Z,455.70
2019-03-26T06:58:48.778Z,441.04
2019-03-26T06:59:48.771Z,443.50
2019-03-26T07:00:48.805Z,443.87
2019-03-26T07:01:48.758Z,440.34
2019-03-26T07:02:48.757Z,443.15
2019-03-26T07:03:48.726Z,436.88
2019-03-26T07:04:48.743Z,438.58
2019-03-26T07:05:48.734Z,442.02
2019-03-26T07:06:48.700Z,442.82
2019-03-26T07:07:48.687Z,444.37
2019-03-26T07:08:48.670Z,443.59
2019-03-26T07:09:48.672Z,442.53
2019-03-26T07:10:48.682Z,442.62
2019-03-26T07:11:48.639Z,441.94
2019-03-26T07:12:48.630Z,441.00
2019-03-26T07:13:48.633Z,449.70
2019-03-26T07:14:48.613Z,442.73
2019-03-26T07:15:48.625Z,443.93
2019-03-26T07:16:48.612Z,442.43
2019-03-26T07:17:48.586Z,438.01
2019-03-26T07:18:48.563Z,440.20
2019-03-26T07:19:48.545Z,444.47
2019-03-26T07:20:48.541Z,437.84
2019-03-26T07:21:49.807Z,435.81
2019-03-26T07:22:48.521Z,441.40
2019-03-26T07:23:48.538Z,443.96
2019-03-26T07:24:48.523Z,440.74
2019-03-26T07:25:48.482Z,447.23
2019-03-26T07:26:48.507Z,440.76
2019-03-26T07:27:48.474Z,444.24
2019-03-26T07:28:48.463Z,445.59
2019-03-26T07:29:48.444Z,448.52
2019-03-26T07:30:48.442Z,443.74
2019-03-26T07:31:48.415Z,444.15
2019-03-26T07:32:48.426Z,442.57
2019-03-26T07:33:48.402Z,448.52
2019-03-26T07:34:48.394Z,444.90
2019-03-26T07:35:48.388Z,447.51
2019-03-26T07:36:48.372Z,455.69
2019-03-26T07:37:48.386Z,445.18
2019-03-26T07:38:48.340Z,443.59
2019-03-26T07:39:48.332Z,448.82
2019-03-26T07:40:48.325Z,441.02
2019-03-26T07:41:48.324Z,441.74
2019-03-26T07:42:48.313Z,442.21
2019-03-26T07:43:48.306Z,442.51
2019-03-26T07:44:48.284Z,441.10
2019-03-26T07:45:48.273Z,447.36
2019-03-26T07:46:48.271Z,449.58
2019-03-26T07:47:48.252Z,443.89
2019-03-26T07:48:48.256Z,451.60
2019-03-26T07:49:48.214Z,440.78
2019-03-26T07:50:48.219Z,440.18
2019-03-26T07:51:48.193Z,450.10
2019-03-26T07:52:48.186Z,453.83
2019-03-26T07:53:48.213Z,441.29
2019-03-26T07:54:48.174Z,445.21
2019-03-26T07:55:48.171Z,455.98
2019-03-26T07:56:48.154Z,448.07
2019-03-26T07:57:48.129Z,454.58
2019-03-26T07:58:48.134Z,453.53
2019-03-26T07:59:48.148Z,443.96
2019-03-26T08:00:48.108Z,442.70
2019-03-26T08:01:48.086Z,432.92
2019-03-26T08:02:48.078Z,439.60
2019-03-26T08:03:48.068Z,440.84
2019-03-26T08:04:48.086Z,436.04
2019-03-26T08:05:48.054Z,434.39
2019-03-26T08:06:48.043Z,435.41
2019-03-26T08:07:57.793Z,446.46
2019-03-26T08:08:49.038Z,437.19
2019-03-26T08:09:47.996Z,445.70
2019-03-26T08:10:48.009Z,445.44
2019-03-26T08:11:47.979Z,441.89
2019-03-26T08:12:47.983Z,431.35
2019-03-26T08:13:48.078Z,441.84
2019-03-26T08:14:47.993Z,444.28
2019-03-26T08:15:47.980Z,427.25
2019-03-26T08:16:47.951Z,447.43
2019-03-26T08:17:47.921Z,442.32
2019-03-26T08:18:47.910Z,445.25
2019-03-26T08:19:47.915Z,441.71
2019-03-26T08:20:47.887Z,434.81
2019-03-26T08:21:47.896Z,437.56
2019-03-26T08:22:47.855Z,433.58
2019-03-26T08:23:47.872Z,438.25
2019-03-26T08:24:47.827Z,429.49
2019-03-26T08:25:47.842Z,438.27
2019-03-26T08:26:47.848Z,440.75
2019-03-26T08:27:47.806Z,423.66
2019-03-26T08:28:47.826Z,433.21
2019-03-26T08:29:47.774Z,448.21
2019-03-26T08:30:50.202Z,432.57
2019-03-26T08:31:47.758Z,422.25
2019-03-26T08:32:47.757Z,431.84
2019-03-26T08:33:47.741Z,438.61
2019-03-26T08:34:47.737Z,421.60
2019-03-26T08:35:47.708Z,436.67
2019-03-26T08:36:47.701Z,429.15
2019-03-26T08:37:47.723Z,438.54
2019-03-26T08:38:47.681Z,430.57
2019-03-26T08:39:47.674Z,431.28
2019-03-26T08:40:47.771Z,429.75
2019-03-26T08:41:47.659Z,424.67
2019-03-26T08:42:47.637Z,447.61
2019-03-26T08:43:47.643Z,459.32
2019-03-26T08:44:47.606Z,435.74
2019-03-26T08:45:47.610Z,415.55
2019-03-26T08:46:47.598Z,435.81
2019-03-26T08:47:47.578Z,430.13
2019-03-26T08:48:47.569Z,433.65
2019-03-26T08:49:47.605Z,429.88
2019-03-26T08:50:47.556Z,428.36
2019-03-26T08:51:47.562Z,428.01
2019-03-26T08:52:47.531Z,431.41
2019-03-26T08:53:47.512Z,430.16
2019-03-26T08:54:47.534Z,435.25
2019-03-26T08:55:47.492Z,441.80
2019-03-26T08:56:47.478Z,434.47
2019-03-26T08:57:47.473Z,437.66
2019-03-26T08:58:47.468Z,447.94
2019-03-26T08:59:47.468Z,441.80
2019-03-26T09:00:47.471Z,444.55
2019-03-26T09:01:47.420Z,437.04
2019-03-26T09:02:47.416Z,449.13
2019-03-26T09:03:47.412Z,442.59
2019-03-26T09:04:47.420Z,449.61
2019-03-26T09:05:47.400Z,450.26
2019-03-26T09:06:47.369Z,448.87
2019-03-26T09:07:47.353Z,455.83
2019-03-26T09:08:47.343Z,450.90
2019-03-26T09:09:47.353Z,437.15
2019-03-26T09:10:52.056Z,421.71
2019-03-26T09:11:47.322Z,447.82
2019-03-26T09:12:47.328Z,443.34
2019-03-26T09:13:47.289Z,450.62
2019-03-26T09:14:47.296Z,446.67
2019-03-26T09:15:47.281Z,424.67
2019-03-26T09:16:47.262Z,446.24
2019-03-26T09:17:47.279Z,451.97
2019-03-26T09:18:47.264Z,441.63
2019-03-26T09:19:47.220Z,432.53
2019-03-26T09:20:47.217Z,432.77
2019-03-26T09:21:47.228Z,443.54
2019-03-26T09:22:47.201Z,444.30
2019-03-26T09:23:47.197Z,443.50
2019-03-26T09:24:47.184Z,442.67
2019-03-26T09:25:47.177Z,447.08
2019-03-26T09:26:47.158Z,439.85
2019-03-26T09:27:47.143Z,447.68
2019-03-26T09:28:47.948Z,443.82
2019-03-26T09:29:47.124Z,451.52
2019-03-26T09:30:47.162Z,448.83
2019-03-26T09:31:47.125Z,437.60
2019-03-26T09:32:47.098Z,452.62
2019-03-26T09:33:47.074Z,456.87
2019-03-26T09:34:47.050Z,439.69
2019-03-26T09:35:47.075Z,438.50
2019-03-26T09:36:47.083Z,445.91
2019-03-26T09:37:47.030Z,447.02
2019-03-26T09:38:47.013Z,443.63
2019-03-26T09:39:47.011Z,445.93
2019-03-26T09:40:46.984Z,443.69
2019-03-26T09:41:47.011Z,449.96
2019-03-26T09:42:46.987Z,458.18
2019-03-26T09:43:46.973Z,428.90
2019-03-26T09:44:46.959Z,443.13
2019-03-26T09:45:46.937Z,448.42
2019-03-26T09:46:46.946Z,453.33
2019-03-26T09:47:46.932Z,452.94
2019-03-26T09:48:46.914Z,449.69
2019-03-26T09:49:46.909Z,450.03
2019-03-26T09:50:46.891Z,445.03
2019-03-26T09:51:46.883Z,447.57
2019-03-26T09:52:46.875Z,446.96
2019-03-26T09:53:46.867Z,448.58
2019-03-26T09:54:46.839Z,441.74
2019-03-26T09:55:46.837Z,447.90
2019-03-26T09:56:46.827Z,447.45
2019-03-26T09:57:46.838Z,457.92
2019-03-26T09:58:46.806Z,452.40
2019-03-26T09:59:46.806Z,437.06
2019-03-26T10:00:46.888Z,460.94
2019-03-26T10:01:46.793Z,452.53
2019-03-26T10:02:46.764Z,457.37
2019-03-26T10:03:46.777Z,448.55
2019-03-26T10:04:46.748Z,459.44
2019-03-26T10:05:46.726Z,466.82
2019-03-26T10:06:46.703Z,465.09
2019-03-26T10:07:46.722Z,460.16
2019-03-26T10:08:52.464Z,488.80
2019-03-26T10:09:47.679Z,464.23
2019-03-26T10:10:46.664Z,452.63
2019-03-26T10:11:46.652Z,444.63
2019-03-26T10:12:46.663Z,449.92
2019-03-26T10:13:46.661Z,448.94
2019-03-26T10:14:46.623Z,457.55
2019-03-26T10:15:46.617Z,443.98
2019-03-26T10:16:46.601Z,458.70
2019-03-26T10:17:46.576Z,457.21
2019-03-26T10:18:46.588Z,436.33
2019-03-26T10:19:46.567Z,440.82
2019-03-26T10:20:46.558Z,440.66
2019-03-26T10:21:46.574Z,437.85
2019-03-26T10:22:46.551Z,453.62
2019-03-26T10:23:46.524Z,453.12
2019-03-26T10:24:46.519Z,457.82
2019-03-26T10:25:46.511Z,452.05
2019-03-26T10:26:46.493Z,447.08
2019-03-26T10:27:46.513Z,454.43
2019-03-26T10:28:46.494Z,438.20
2019-03-26T10:29:46.488Z,441.33
2019-03-26T10:30:46.453Z,456.99
2019-03-26T10:31:46.434Z,450.21
2019-03-26T10:32:46.420Z,447.32
2019-03-26T10:33:46.447Z,443.20
2019-03-26T10:34:46.418Z,452.36
2019-03-26T10:35:46.395Z,445.64
2019-03-26T10:36:46.388Z,446.07
2019-03-26T10:37:46.377Z,446.56
2019-03-26T10:38:46.356Z,471.00
2019-03-26T10:39:46.379Z,438.48
2019-03-26T10:40:46.342Z,445.62
2019-03-26T10:41:46.326Z,453.52
2019-03-26T10:42:46.307Z,453.58
2019-03-26T10:43:46.312Z,456.79
2019-03-26T10:44:46.314Z,453.21
2019-03-26T10:45:46.287Z,462.42
2019-03-26T10:46:46.287Z,462.99
2019-03-26T10:47:46.256Z,466.43
2019-03-26T10:48:46.248Z,478.52
2019-03-26T10:49:46.226Z,476.52
2019-03-26T10:50:46.249Z,469.90
2019-03-26T10:51:46.223Z,451.98
2019-03-26T10:52:46.207Z,451.20
2019-03-26T10:53:46.205Z,466.60
2019-03-26T10:54:46.188Z,479.00
2019-03-26T10:55:46.192Z,454.60
2019-03-26T10:56:46.155Z,490.30
2019-03-26T10:57:46.224Z,460.09
2019-03-26T10:58:46.139Z,456.04
2019-03-26T10:59:46.156Z,477.84
2019-03-26T11:00:46.157Z,466.24
2019-03-26T11:01:46.099Z,423.03
2019-03-26T11:02:46.103Z,479.72
2019-03-26T11:03:46.077Z,452.15
2019-03-26T11:04:46.067Z,449.37
2019-03-26T11:05:46.068Z,456.26
2019-03-26T11:06:46.071Z,444.95
2019-03-26T11:07:46.051Z,450.27
2019-03-26T11:08:46.028Z,458.10
2019-03-26T11:09:46.015Z,464.56
2019-03-26T11:10:46.004Z,449.66
2019-03-26T11:11:46.021Z,458.11
2019-03-26T11:12:45.986Z,458.41
2019-03-26T11:13:45.961Z,455.19
2019-03-26T11:14:45.989Z,447.99
2019-03-26T11:15:45.952Z,454.95
2019-03-26T11:16:45.938Z,449.21
2019-03-26T11:17:45.946Z,457.94
2019-03-26T11:18:45.924Z,450.64
2019-03-26T11:19:46.549Z,451.82
2019-03-26T11:20:45.920Z,441.14
2019-03-26T11:21:45.890Z,447.04
2019-03-26T11:22:45.889Z,446.15
2019-03-26T11:23:45.875Z,466.32
2019-03-26T11:24:45.871Z,457.66
2019-03-26T11:25:45.844Z,447.24
2019-03-26T11:26:45.837Z,448.76
2019-03-26T11:27:45.832Z,450.41
2019-03-26T11:28:45.855Z,458.89
2019-03-26T11:29:45.826Z,457.15
2019-03-26T11:30:45.795Z,454.26
2019-03-26T11:31:45.778Z,460.51
2019-03-26T11:32:45.809Z,457.12
2019-03-26T11:33:45.743Z,451.06
2019-03-26T11:34:45.733Z,449.11
2019-03-26T11:35:45.734Z,454.01
2019-03-26T11:36:45.719Z,451.68
2019-03-26T11:37:45.702Z,450.49
2019-03-26T11:38:45.709Z,455.51
2019-03-26T11:39:45.684Z,455.77
2019-03-26T11:40:45.680Z,453.35
2019-03-26T11:41:45.655Z,452.00
2019-03-26T11:42:45.655Z,446.16
2019-03-26T11:43:45.673Z,453.01
2019-03-26T11:44:45.631Z,446.28
2019-03-26T11:45:45.621Z,450.10
2019-03-26T11:46:45.604Z,456.03
2019-03-26T11:47:45.782Z,446.97
2019-03-26T11:48:45.795Z,448.89
2019-03-26T11:49:45.581Z,451.63
2019-03-26T11:50:45.567Z,446.16
2019-03-26T11:51:45.562Z,463.03
2019-03-26T11:52:45.567Z,454.33
2019-03-26T11:53:45.870Z,453.64
2019-03-26T11:54:45.513Z,445.52
2019-03-26T11:55:45.509Z,457.29
2019-03-26T11:56:45.489Z,450.38
2019-03-26T11:57:46.016Z,451.26
2019-03-26T11:58:46.023Z,443.42
2019-03-26T11:59:45.457Z,459.59
2019-03-26T12:00:45.451Z,456.60
2019-03-26T12:01:45.463Z,456.31
2019-03-26T12:02:45.436Z,451.87
2019-03-26T12:03:45.431Z,452.20
2019-03-26T12:04:45.428Z,457.62
2019-03-26T12:05:45.396Z,452.14
2019-03-26T12:06:45.378Z,461.61
2019-03-26T12:07:45.377Z,460.30
2019-03-26T12:08:45.373Z,463.52
2019-03-26T12:09:46.774Z,458.82
2019-03-26T12:10:45.344Z,459.91
2019-03-26T12:11:45.334Z,463.43
2019-03-26T12:12:45.319Z,461.32
2019-03-26T12:13:45.323Z,475.88
2019-03-26T12:14:45.311Z,473.63
2019-03-26T12:15:45.289Z,459.29
2019-03-26T12:16:45.277Z,461.23
2019-03-26T12:17:45.256Z,468.37
2019-03-26T12:18:45.258Z,477.99
2019-03-26T12:19:45.251Z,458.93
2019-03-26T12:20:45.222Z,476.60
2019-03-26T12:21:45.230Z,462.40
2019-03-26T12:22:45.215Z,475.38
2019-03-26T12:23:45.203Z,459.13
2019-03-26T12:24:45.213Z,457.98
2019-03-26T12:25:45.178Z,468.63
2019-03-26T12:26:45.159Z,470.89
2019-03-26T12:27:45.154Z,461.90
2019-03-26T12:28:45.155Z,462.99